<?xml version='1.0' encoding='utf-8'?>
<gpx xmlns="http://www.topografix.com/GPX/1/1" xmlns:xsi="http://www.w3.org/2001/XMLSchema-instance" creator="https://gpx.studio" version="1.1" xsi:schemaLocation="http://www.topografix.com/GPX/1/1 http://www.topografix.com/GPX/1/1/gpx.xsd http://www.garmin.com/xmlschemas/GpxExtensions/v3 http://www.garmin.com/xmlschemas/GpxExtensionsv3.xsd http://www.garmin.com/xmlschemas/TrackPointExtension/v1 http://www.garmin.com/xmlschemas/TrackPointExtensionv1.xsd http://www.garmin.com/xmlschemas/PowerExtension/v1 http://www.garmin.com/xmlschemas/PowerExtensionv1.xsd http://www.topografix.com/GPX/gpx_style/0/2 http://www.topografix.com/GPX/gpx_style/0/2/gpx_style.xsd">
  <metadata>
    <name>New file 1</name>
    <author>
      <name>gpx.studio</name>
      <link href="https://gpx.studio" />
    </author>
  </metadata>
  <trk>
    <name>New file 1</name>
    <trkseg>
      <trkpt lat="55.6260380" lon="8.1324350"><ele>3.910396744568305</ele>
        <time>2026-08-02T11:13:13.000Z</time>
      </trkpt><trkpt lat="55.6248200" lon="8.1319850"><ele>3.700752247232656</ele>
        <time>2026-08-02T11:13:34.221Z</time>
      </trkpt><trkpt lat="55.6248420" lon="8.1312260"><ele>3.615135614271275</ele>
        <time>2026-08-02T11:13:41.532Z</time>
      </trkpt><trkpt lat="55.6248620" lon="8.1312310"><ele>3.589495751624316</ele>
        <time>2026-08-02T11:13:41.875Z</time>
      </trkpt><trkpt lat="55.6245130" lon="8.1312030"><ele>3.5188745846661793</ele>
        <time>2026-08-02T11:13:47.817Z</time>
      </trkpt><trkpt lat="55.6236910" lon="8.1312520"><ele>4.044906245039215</ele>
        <time>2026-08-02T11:14:02.181Z</time>
      </trkpt><trkpt lat="55.6232770" lon="8.1311820"><ele>3.7930075361864493</ele>
        <time>2026-08-02T11:14:09.399Z</time>
      </trkpt><trkpt lat="55.6229960" lon="8.1310040"><ele>3.4658948479534484</ele>
        <time>2026-08-02T11:14:14.294Z</time>
      </trkpt><trkpt lat="55.6227080" lon="8.1306740"><ele>3.553495031520355</ele>
        <time>2026-08-02T11:14:20.090Z</time>
      </trkpt><trkpt lat="55.6225900" lon="8.1304360"><ele>3.600553129115744</ele>
        <time>2026-08-02T11:14:23.199Z</time>
      </trkpt><trkpt lat="55.6224100" lon="8.1299520"><ele>3.644594262061348</ele>
        <time>2026-08-02T11:14:28.868Z</time>
      </trkpt><trkpt lat="55.6221690" lon="8.1292570"><ele>4.303720262948362</ele>
        <time>2026-08-02T11:14:37.099Z</time>
      </trkpt><trkpt lat="55.6222040" lon="8.1291330"><ele>4.417648147401541</ele>
        <time>2026-08-02T11:14:39.147Z</time>
      </trkpt><trkpt lat="55.6221870" lon="8.1290530"><ele>4.525097119756121</ele>
        <time>2026-08-02T11:14:40.027Z</time>
      </trkpt><trkpt lat="55.6236880" lon="8.1277980"><ele>4.869352368964592</ele>
        <time>2026-08-02T11:15:08.952Z</time>
      </trkpt><trkpt lat="55.6236940" lon="8.1278700"><ele>4.794282795354764</ele>
        <time>2026-08-02T11:15:09.663Z</time>
      </trkpt><trkpt lat="55.6247270" lon="8.1270130"><ele>5.85923602737518</ele>
        <time>2026-08-02T11:15:30.004Z</time>
      </trkpt><trkpt lat="55.6248710" lon="8.1268870"><ele>6.298439004192261</ele>
        <time>2026-08-02T11:15:32.918Z</time>
      </trkpt><trkpt lat="55.6250450" lon="8.1266820"><ele>6.6758195278191845</ele>
        <time>2026-08-02T11:15:36.861Z</time>
      </trkpt><trkpt lat="55.6252980" lon="8.1263540"><ele>6.4190160232814275</ele>
        <time>2026-08-02T11:15:42.447Z</time>
      </trkpt><trkpt lat="55.6254470" lon="8.1260690"><ele>5.770421273118034</ele>
        <time>2026-08-02T11:15:45.860Z</time>
      </trkpt><trkpt lat="55.6254190" lon="8.1260170"><ele>5.457635755328982</ele>
        <time>2026-08-02T11:15:46.493Z</time>
      </trkpt><trkpt lat="55.6256030" lon="8.1256020"><ele>5.270264769066131</ele>
        <time>2026-08-02T11:15:51.174Z</time>
      </trkpt><trkpt lat="55.6257050" lon="8.1254600"><ele>5.094547816049575</ele>
        <time>2026-08-02T11:15:53.259Z</time>
      </trkpt><trkpt lat="55.6261110" lon="8.1244580"><ele>4.622752292443208</ele>
        <time>2026-08-02T11:16:04.827Z</time>
      </trkpt><trkpt lat="55.6263010" lon="8.1240660"><ele>4.559564089604627</ele>
        <time>2026-08-02T11:16:09.718Z</time>
      </trkpt><trkpt lat="55.6267460" lon="8.1231840"><ele>6.702066790309344</ele>
        <time>2026-08-02T11:16:22.300Z</time>
      </trkpt><trkpt lat="55.6268920" lon="8.1226630"><ele>5.984912189666712</ele>
        <time>2026-08-02T11:16:27.723Z</time>
      </trkpt><trkpt lat="55.6270270" lon="8.1214210"><ele>5.377321758105948</ele>
        <time>2026-08-02T11:16:39.299Z</time>
      </trkpt><trkpt lat="55.6271450" lon="8.1210150"><ele>5.875506415779939</ele>
        <time>2026-08-02T11:16:43.735Z</time>
      </trkpt><trkpt lat="55.6271760" lon="8.1207770"><ele>6.015708258826917</ele>
        <time>2026-08-02T11:16:46.293Z</time>
      </trkpt><trkpt lat="55.6271890" lon="8.1195070"><ele>6.649691512121691</ele>
        <time>2026-08-02T11:16:59.248Z</time>
      </trkpt><trkpt lat="55.6271670" lon="8.1187660"><ele>4.81349546150598</ele>
        <time>2026-08-02T11:17:05.301Z</time>
      </trkpt><trkpt lat="55.6271070" lon="8.1183040"><ele>2.595759261684684</ele>
        <time>2026-08-02T11:17:08.783Z</time>
      </trkpt><trkpt lat="55.6269820" lon="8.1177890"><ele>1.957260795841325</ele>
        <time>2026-08-02T11:17:13.097Z</time>
      </trkpt><trkpt lat="55.6268470" lon="8.1174180"><ele>1.584249659896776</ele>
        <time>2026-08-02T11:17:17.064Z</time>
      </trkpt><trkpt lat="55.6268120" lon="8.1174010"><ele>1.6021733514775738</ele>
        <time>2026-08-02T11:17:17.652Z</time>
      </trkpt><trkpt lat="55.6256180" lon="8.1167980"><ele>1.9476534116092052</ele>
        <time>2026-08-02T11:17:38.984Z</time>
      </trkpt><trkpt lat="55.6250100" lon="8.1164910"><ele>2.0484795350475906</ele>
        <time>2026-08-02T11:17:49.966Z</time>
      </trkpt><trkpt lat="55.6245390" lon="8.1162530"><ele>2.1085340039923257</ele>
        <time>2026-08-02T11:17:58.438Z</time>
      </trkpt><trkpt lat="55.6243465" lon="8.1160689"><ele>1.9271596075321809</ele>
        <time>2026-08-02T11:18:02.169Z</time>
      </trkpt><trkpt lat="55.6239127" lon="8.1158593"><ele>1.9948763083495933</ele>
        <time>2026-08-02T11:18:09.838Z</time>
      </trkpt><trkpt lat="55.6237987" lon="8.1158043"><ele>2.003211192451684</ele>
        <time>2026-08-02T11:18:11.879Z</time>
      </trkpt><trkpt lat="55.6233701" lon="8.1155639"><ele>1.9886053566151887</ele>
        <time>2026-08-02T11:18:19.603Z</time>
      </trkpt><trkpt lat="55.6229010" lon="8.1151605"><ele>1.6934807218718801</ele>
        <time>2026-08-02T11:18:28.382Z</time>
      </trkpt><trkpt lat="55.6227364" lon="8.1150105"><ele>1.5859844523104576</ele>
        <time>2026-08-02T11:18:31.471Z</time>
      </trkpt><trkpt lat="55.6223019" lon="8.1148053"><ele>1.6350886899145392</ele>
        <time>2026-08-02T11:18:39.167Z</time>
      </trkpt><trkpt lat="55.6218036" lon="8.1145727"><ele>1.7323876503243048</ele>
        <time>2026-08-02T11:18:48.094Z</time>
      </trkpt><trkpt lat="55.6214749" lon="8.1144079"><ele>1.8030890269181488</ele>
        <time>2026-08-02T11:18:54.019Z</time>
      </trkpt><trkpt lat="55.6212425" lon="8.1142315"><ele>1.739406799338615</ele>
        <time>2026-08-02T11:18:58.309Z</time>
      </trkpt><trkpt lat="55.6211097" lon="8.1140110"><ele>1.5129012163761466</ele>
        <time>2026-08-02T11:19:01.310Z</time>
      </trkpt><trkpt lat="55.6209911" lon="8.1137231"><ele>1.2276258216819893</ele>
        <time>2026-08-02T11:19:04.631Z</time>
      </trkpt><trkpt lat="55.6209020" lon="8.1135884"><ele>1.1240563152077812</ele>
        <time>2026-08-02T11:19:06.707Z</time>
      </trkpt><trkpt lat="55.6208803" lon="8.1136231"><ele>1.1831734963589042</ele>
        <time>2026-08-02T11:19:07.200Z</time>
      </trkpt><trkpt lat="55.6208803" lon="8.1136693"><ele>1.2409769609375871</ele>
        <time>2026-08-02T11:19:07.640Z</time>
      </trkpt><trkpt lat="55.6208999" lon="8.1135423"><ele>1.07048986153759</ele>
        <time>2026-08-02T11:19:08.894Z</time>
      </trkpt><trkpt lat="55.6209129" lon="8.1136885"><ele>1.241414866195555</ele>
        <time>2026-08-02T11:19:12.547Z</time>
      </trkpt><trkpt lat="55.6210107" lon="8.1140541"><ele>1.6776739345648732</ele>
        <time>2026-08-02T11:19:16.631Z</time>
      </trkpt><trkpt lat="55.6214179" lon="8.1143921"><ele>1.8443286196667419</ele>
        <time>2026-08-02T11:19:24.661Z</time>
      </trkpt><trkpt lat="55.6215301" lon="8.1144852"><ele>1.8891888511860864</ele>
        <time>2026-08-02T11:19:26.826Z</time>
      </trkpt><trkpt lat="55.6219559" lon="8.1147414"><ele>1.8961705991601885</ele>
        <time>2026-08-02T11:19:34.585Z</time>
      </trkpt><trkpt lat="55.6223037" lon="8.1149508"><ele>1.912860430737006</ele>
        <time>2026-08-02T11:19:40.907Z</time>
      </trkpt><trkpt lat="55.6227459" lon="8.1150958"><ele>1.7304923416786269</ele>
        <time>2026-08-02T11:19:48.564Z</time>
      </trkpt><trkpt lat="55.6231090" lon="8.1152149"><ele>1.5840583946933138</ele>
        <time>2026-08-02T11:19:54.797Z</time>
      </trkpt><trkpt lat="55.6235293" lon="8.1154980"><ele>1.6891260823771908</ele>
        <time>2026-08-02T11:20:02.507Z</time>
      </trkpt><trkpt lat="55.6238149" lon="8.1156903"><ele>1.7655344512227702</ele>
        <time>2026-08-02T11:20:07.814Z</time>
      </trkpt><trkpt lat="55.6242442" lon="8.1159273"><ele>1.7589934518472747</ele>
        <time>2026-08-02T11:20:15.574Z</time>
      </trkpt><trkpt lat="55.6246735" lon="8.1161643"><ele>1.7990807476275206</ele>
        <time>2026-08-02T11:20:23.315Z</time>
      </trkpt><trkpt lat="55.6251028" lon="8.1164012"><ele>1.7991777349202742</ele>
        <time>2026-08-02T11:20:31.058Z</time>
      </trkpt><trkpt lat="55.6255321" lon="8.1166382"><ele>1.7637140873479558</ele>
        <time>2026-08-02T11:20:38.772Z</time>
      </trkpt><trkpt lat="55.6259614" lon="8.1168752"><ele>1.7210394484503113</ele>
        <time>2026-08-02T11:20:46.469Z</time>
      </trkpt><trkpt lat="55.6264564" lon="8.1171766"><ele>1.680220726447425</ele>
        <time>2026-08-02T11:20:55.433Z</time>
      </trkpt><trkpt lat="55.6268809" lon="8.1174392"><ele>1.5714204979341118</ele>
        <time>2026-08-02T11:21:03.106Z</time>
      </trkpt><trkpt lat="55.6270976" lon="8.1182595"><ele>2.5111834068751566</ele>
        <time>2026-08-02T11:21:13.052Z</time>
      </trkpt><trkpt lat="55.6272239" lon="8.1190239"><ele>4.5587023987594915</ele>
        <time>2026-08-02T11:21:21.917Z</time>
      </trkpt><trkpt lat="55.6272695" lon="8.1192999"><ele>6.051841691363661</ele>
        <time>2026-08-02T11:21:25.374Z</time>
      </trkpt><trkpt lat="55.6272439" lon="8.1200951"><ele>5.963501185984629</ele>
        <time>2026-08-02T11:21:33.888Z</time>
      </trkpt><trkpt lat="55.6272248" lon="8.1206909"><ele>5.8439418271131744</ele>
        <time>2026-08-02T11:21:39.732Z</time>
      </trkpt><trkpt lat="55.6271770" lon="8.1206900"><ele>6.223427797988377</ele>
        <time>2026-08-02T11:21:40.547Z</time>
      </trkpt><trkpt lat="55.6271680" lon="8.1209040"><ele>5.900302965089667</ele>
        <time>2026-08-02T11:21:42.563Z</time>
      </trkpt><trkpt lat="55.6271450" lon="8.1210150"><ele>5.875506415779939</ele>
        <time>2026-08-02T11:21:43.661Z</time>
      </trkpt><trkpt lat="55.6270270" lon="8.1214210"><ele>5.377321758105948</ele>
        <time>2026-08-02T11:21:47.903Z</time>
      </trkpt><trkpt lat="55.6268920" lon="8.1226630"><ele>5.984912189666712</ele>
        <time>2026-08-02T11:22:00.062Z</time>
      </trkpt><trkpt lat="55.6268080" lon="8.1230440"><ele>6.65465023833428</ele>
        <time>2026-08-02T11:22:04.255Z</time>
      </trkpt><trkpt lat="55.6267460" lon="8.1231840"><ele>6.702066790309344</ele>
        <time>2026-08-02T11:22:06.147Z</time>
      </trkpt><trkpt lat="55.6261820" lon="8.1243120"><ele>4.589417848871788</ele>
        <time>2026-08-02T11:22:19.994Z</time>
      </trkpt><trkpt lat="55.6261820" lon="8.1243120"><ele>4.589417848871788</ele>
        <time>2026-08-02T11:22:19.994Z</time>
      </trkpt><trkpt lat="55.6261110" lon="8.1244580"><ele>4.622752292443208</ele>
        <time>2026-08-02T11:22:21.889Z</time>
      </trkpt><trkpt lat="55.6257050" lon="8.1254600"><ele>5.094547816049575</ele>
        <time>2026-08-02T11:22:34.193Z</time>
      </trkpt><trkpt lat="55.6254470" lon="8.1260690"><ele>5.770421273118034</ele>
        <time>2026-08-02T11:22:41.918Z</time>
      </trkpt><trkpt lat="55.6252980" lon="8.1263540"><ele>6.4190160232814275</ele>
        <time>2026-08-02T11:22:46.028Z</time>
      </trkpt><trkpt lat="55.6250450" lon="8.1266820"><ele>6.6758195278191845</ele>
        <time>2026-08-02T11:22:51.825Z</time>
      </trkpt><trkpt lat="55.6248710" lon="8.1268870"><ele>6.298439004192261</ele>
        <time>2026-08-02T11:22:55.264Z</time>
      </trkpt><trkpt lat="55.6246600" lon="8.1270720"><ele>5.701049064667446</ele>
        <time>2026-08-02T11:22:58.916Z</time>
      </trkpt><trkpt lat="55.6224140" lon="8.1289330"><ele>4.462428856844694</ele>
        <time>2026-08-02T11:23:40.084Z</time>
      </trkpt><trkpt lat="55.6221450" lon="8.1291890"><ele>4.440761892352456</ele>
        <time>2026-08-02T11:23:45.225Z</time>
      </trkpt><trkpt lat="55.6224100" lon="8.1299520"><ele>3.644594262061348</ele>
        <time>2026-08-02T11:23:53.524Z</time>
      </trkpt><trkpt lat="55.6225900" lon="8.1304360"><ele>3.600553129115744</ele>
        <time>2026-08-02T11:23:58.893Z</time>
      </trkpt><trkpt lat="55.6227080" lon="8.1306740"><ele>3.553495031520355</ele>
        <time>2026-08-02T11:24:01.941Z</time>
      </trkpt><trkpt lat="55.6229960" lon="8.1310040"><ele>3.4658948479534484</ele>
        <time>2026-08-02T11:24:07.767Z</time>
      </trkpt><trkpt lat="55.6232200" lon="8.1311570"><ele>3.704152085554296</ele>
        <time>2026-08-02T11:24:11.962Z</time>
      </trkpt><trkpt lat="55.6236910" lon="8.1312520"><ele>4.044906245039215</ele>
        <time>2026-08-02T11:24:20.427Z</time>
      </trkpt><trkpt lat="55.6245130" lon="8.1312030"><ele>3.5188745846661793</ele>
        <time>2026-08-02T11:24:34.421Z</time>
      </trkpt><trkpt lat="55.6248420" lon="8.1312260"><ele>3.615135614271275</ele>
        <time>2026-08-02T11:24:39.984Z</time>
      </trkpt><trkpt lat="55.6248130" lon="8.1321540"><ele>3.6934111608664404</ele>
        <time>2026-08-02T11:24:49.085Z</time>
      </trkpt><trkpt lat="55.6248130" lon="8.1321540"><ele>3.6934111608664404</ele>
        <time>2026-08-02T11:24:49.085Z</time>
      </trkpt><trkpt lat="55.6248200" lon="8.1319850"><ele>3.700752247232656</ele>
        <time>2026-08-02T11:24:50.735Z</time>
      </trkpt><trkpt lat="55.6259750" lon="8.1324120"><ele>3.96914509941658</ele>
        <time>2026-08-02T11:25:11.210Z</time>
      </trkpt><trkpt lat="55.6260044" lon="8.1324921"><ele>3.9932701322609754</ele>
        <time>2026-08-02T11:25:12.145Z</time>
      </trkpt><trkpt lat="55.6260032" lon="8.1325739"><ele>3.970863467028508</ele>
        <time>2026-08-02T11:25:12.939Z</time>
      </trkpt></trkseg>
  </trk>
</gpx>